Latest Weather Observations for Birdsville

IDQ60801

Issued at 10:05 am EST Saturday 2 August 2014 (issued every 30 minutes, with the page automatically refreshed every 10 minutes)

About weather observations | Map of weather stations | Latest weather observations for QLD | Other Formats
Station Details ID: 038026 Name: BIRDSVILLE AIRPORT Lat: -25.90 Lon: 139.35 Height: 46.6 m
Data from the previous 72 hours. | See also: Recent months at Birdsville
Date/Time
EST
Temp
°C
App
Temp
°C
Dew
Point
Rel
Hum
%
Delta-T
°C
Wind Press
QNH
hPa
Press
MSL
hPa
Rain
since 9 am
mm
Dir
 
Spd
km/h
Gust
km/h
Spd
kts
Gust
kts
02/10:00am 12.1 5.5 -3.7 33 5.9 SE 22 28 12 15 1029.2 - 0.0
02/09:30am 10.5 3.9 -3.6 37 5.2 SE 22 30 12 16 1028.9 - 0.0
02/09:00am 9.0 3.3 -3.5 41 4.5 SE 17 22 9 12 1028.7 1028.8 0.0
02/08:30am 6.6 1.5 -4.8 44 3.9 SSE 13 17 7 9 1028.3 - 0.0
02/08:00am 5.5 0.4 -4.9 47 3.5 S 13 15 7 8 1028.1 - 0.0
02/07:30am 4.4 -0.3 -5.1 50 3.2 S 11 13 6 7 1028.0 - 0.0
02/07:00am 4.4 -0.4 -5.6 48 3.3 S 11 13 6 7 1027.7 - 0.0
02/06:30am 5.0 0.3 -5.1 48 3.4 S 11 15 6 8 1027.5 - 0.0
02/06:00am 4.0 -0.8 -6.0 48 3.2 S 11 11 6 6 1027.1 1027.1 0.0
02/05:30am 3.8 -0.4 -7.3 44 3.4 S 7 9 4 5 1026.9 - 0.0
02/05:00am 4.6 -0.3 -7.2 42 3.7 S 11 13 6 7 1026.6 - 0.0
02/04:30am 5.8 1.1 -4.9 46 3.6 S 11 11 6 6 1026.5 - 0.0
02/04:00am 4.7 -0.6 -7.4 41 3.8 S 13 15 7 8 1026.5 - 0.0
02/03:30am 7.1 2.1 -4.6 43 4.1 SSE 13 15 7 8 1026.5 - 0.0
02/03:00am 7.1 2.4 -4.9 42 4.1 SSE 11 13 6 7 1026.7 1026.7 0.0
02/02:30am 7.8 2.8 -4.0 43 4.2 SSE 13 15 7 8 1026.8 - 0.0
02/02:00am 7.3 2.6 -5.1 41 4.3 SSE 11 11 6 6 1027.0 - 0.0
02/01:30am 6.9 2.5 -5.7 40 4.3 S 9 11 5 6 1027.0 - 0.0
02/01:00am 7.3 3.3 -5.7 39 4.4 S 7 9 4 5 1027.1 - 0.0
02/12:30am 8.0 3.3 -5.4 38 4.6 S 11 11 6 6 1026.9 - 0.0
02/12:00am 9.3 5.4 -4.3 38 4.9 S 7 11 4 6 1026.8 1026.9 0.0
 
Date/Time
EST
Temp
°C
App
Temp
°C
Dew
Point
Rel
Hum
%
Delta-T
°C
Wind Press
QNH
hPa
Press
MSL
hPa
Rain
since 9 am
mm
Dir
 
Spd
km/h
Gust
km/h
Spd
kts
Gust
kts
01/11:30pm 10.6 5.2 -4.2 35 5.4 S 15 19 8 10 1026.8 - 0.0
01/11:00pm 11.5 5.8 -3.8 34 5.7 S 17 20 9 11 1026.5 - 0.0
01/10:30pm 11.9 6.2 -3.8 33 5.9 S 17 20 9 11 1026.2 - 0.0
01/10:00pm 12.0 6.2 -4.2 32 6.0 S 17 19 9 10 1026.0 - 0.0
01/09:30pm 12.3 7.0 -3.9 32 6.1 S 15 17 8 9 1025.8 - 0.0
01/09:00pm 12.9 7.2 -3.4 32 6.2 S 17 20 9 11 1025.7 1025.7 0.0
01/08:30pm 13.3 8.0 -3.4 31 6.4 S 15 19 8 10 1025.3 - 0.0
01/08:00pm 13.6 8.3 -3.2 31 6.5 S 15 19 8 10 1024.9 - 0.0
01/07:30pm 14.3 8.3 -3.0 30 6.8 S 19 24 10 13 1024.5 - 0.0
01/07:00pm 15.2 8.7 -2.7 29 7.2 S 22 28 12 15 1023.9 - 0.0
01/06:30pm 15.8 8.6 -2.2 29 7.3 S 26 33 14 18 1023.4 - 0.0
01/06:00pm 16.4 9.2 -1.7 29 7.4 S 26 33 14 18 1023.0 1023.0 0.0
01/05:30pm 17.2 9.3 -1.4 28 7.8 S 30 37 16 20 1022.7 - 0.0
01/05:00pm 17.4 9.5 -1.8 27 8.0 S 30 39 16 21 1022.4 - 0.0
01/04:30pm 18.0 9.7 -1.8 26 8.3 S 32 50 17 27 1022.2 - 0.0
01/04:29pm 18.1 9.8 -1.7 26 8.3 S 32 50 17 27 1022.2 - 0.0
01/04:00pm 18.3 9.9 -1.0 27 8.2 S 33 46 18 25 1022.3 - 0.0
01/03:30pm 18.4 10.0 -0.9 27 8.3 SSW 33 43 18 23 1022.2 - 0.0
01/03:00pm 18.4 9.5 -2.0 25 8.5 S 35 44 19 24 1022.3 1022.3 0.0
01/02:30pm 17.9 9.6 -1.9 26 8.3 S 32 41 17 22 1022.5 - 0.0
01/02:00pm 17.9 8.9 -2.4 25 8.4 S 35 46 19 25 1022.7 - 0.0
01/01:30pm 17.3 8.0 -2.4 26 8.1 S 37 46 20 25 1023.1 - 0.0
01/01:00pm 17.5 8.7 -1.2 28 7.9 S 35 44 19 24 1023.5 - 0.0
01/12:30pm 17.6 9.3 -0.6 29 7.8 S 33 46 18 25 1023.7 - 0.0
01/12:00pm 17.1 8.9 0.3 32 7.3 SSW 33 44 18 24 1023.9 1024.0 0.0
01/11:30am 16.0 7.1 1.0 36 6.5 S 37 48 20 26 1024.0 - 0.0
01/11:00am 15.6 6.8 1.3 38 6.3 S 37 46 20 25 1024.1 - 0.0
01/10:30am 15.2 6.5 1.7 40 5.9 S 37 48 20 26 1024.3 - 0.0
01/10:00am 14.6 5.2 2.2 43 5.5 S 41 52 22 28 1023.8 - 0.0
01/09:30am 14.2 5.8 3.7 49 4.8 S 37 44 20 24 1023.4 - 0.0
01/09:00am 13.7 6.6 5.3 57 3.9 S 32 41 17 22 1022.8 1022.9 0.0
01/08:30am 12.9 7.7 5.3 60 3.5 S 22 30 12 16 1022.3 - 0.0
01/08:00am 12.1 6.7 4.6 60 3.4 S 22 28 12 15 1021.8 - 0.0
01/07:30am 11.8 6.7 4.1 59 3.5 S 20 24 11 13 1021.4 - 0.0
01/07:00am 12.0 6.8 3.5 56 3.8 S 20 26 11 14 1020.7 - 0.0
01/06:30am 12.5 6.8 2.9 52 4.2 S 22 30 12 16 1020.1 - 0.0
01/06:00am 13.0 7.2 2.5 49 4.6 S 22 28 12 15 1019.6 1019.7 0.0
01/05:30am 13.3 7.8 1.6 45 5.0 S 20 28 11 15 1019.0 - 0.0
01/05:00am 13.1 7.2 -0.5 39 5.6 SSW 20 24 11 13 1018.3 - 0.0
01/04:30am 13.3 6.3 -3.4 31 6.4 SSW 24 30 13 16 1017.7 - 0.0
01/04:00am 13.8 7.0 -4.8 27 7.0 SW 22 30 12 16 1017.3 - 0.0
01/03:30am 14.6 8.2 -4.7 26 7.3 WSW 20 24 11 13 1017.0 - 0.0
01/03:00am 15.0 8.7 -5.4 24 7.7 WSW 19 22 10 12 1016.7 1016.8 0.0
01/02:30am 14.7 9.2 -5.6 24 7.6 W 15 20 8 11 1016.7 - 0.0
01/02:00am 15.8 9.6 -4.7 24 7.9 NW 19 26 10 14 1016.2 - 0.0
01/01:30am 12.7 7.3 -7.9 23 7.1 NNW 13 15 7 8 1015.9 - 0.0
01/01:00am 13.2 7.9 -6.9 24 7.2 NW 13 17 7 9 1015.9 - 0.0
01/12:30am 14.1 9.2 -7.3 22 7.6 NW 11 11 6 6 1015.9 - 0.0
01/12:00am 13.8 8.5 -7.5 22 7.5 WNW 13 15 7 8 1016.0 1016.1 0.0
 
Date/Time
EST
Temp
°C
App
Temp
°C
Dew
Point
Rel
Hum
%
Delta-T
°C
Wind Press
QNH
hPa
Press
MSL
hPa
Rain
since 9 am
mm
Dir
 
Spd
km/h
Gust
km/h
Spd
kts
Gust
kts
31/11:30pm 14.2 9.2 -7.8 21 7.8 WNW 11 11 6 6 1016.1 - 0.0
31/11:00pm 15.0 10.1 -7.1 21 8.0 WNW 11 13 6 7 1016.0 - 0.0
31/10:30pm 14.5 9.9 -8.2 20 8.0 WNW 9 11 5 6 1016.0 - 0.0
31/10:00pm 15.6 10.6 -7.9 19 8.4 WNW 11 13 6 7 1015.9 - 0.0
31/09:30pm 16.1 11.9 -8.2 18 8.7 WNW 7 11 4 6 1015.9 - 0.0
31/09:00pm 16.7 12.6 -7.0 19 8.8 WNW 7 9 4 5 1015.8 1016.0 0.0
31/08:30pm 17.4 14.5 -8.6 16 9.4 CALM 0 6 0 3 1015.7 - 0.0
31/08:00pm 18.9 14.7 -7.4 16 9.9 WSW 7 9 4 5 1015.6 - 0.0
31/07:30pm 20.2 15.7 -6.4 16 10.4 WSW 9 9 5 5 1015.3 - 0.0
31/07:00pm 20.9 16.4 -6.7 15 10.8 WSW 9 11 5 6 1015.0 - 0.0
31/06:30pm 22.6 17.7 -7.2 13 11.7 WSW 11 13 6 7 1014.7 - 0.0
31/06:00pm 24.3 19.8 -6.9 12 12.5 WSW 9 13 5 7 1014.5 1014.5 0.0
31/05:30pm 25.5 20.2 -7.1 11 13.2 WSW 13 19 7 10 1014.6 - 0.0
31/05:00pm 25.9 20.3 -6.8 11 13.4 W 15 20 8 11 1014.5 - 0.0
31/04:30pm 25.9 19.3 -6.8 11 13.4 W 20 26 11 14 1014.6 - 0.0
31/04:00pm 26.1 19.6 -7.9 10 13.7 WSW 19 24 10 13 1014.8 - 0.0
31/03:30pm 26.7 21.1 -6.2 11 13.7 W 15 24 8 13 1015.0 - 0.0
31/03:00pm 25.8 20.9 -6.9 11 13.3 WNW 11 24 6 13 1015.3 1015.4 0.0
31/02:30pm 25.5 21.0 -7.1 11 13.2 NW 9 20 5 11 1015.6 - 0.0
31/02:00pm 25.5 20.6 -7.1 11 13.2 NW 11 19 6 10 1016.1 - 0.0
31/01:30pm 24.9 20.1 -6.4 12 12.8 WNW 11 20 6 11 1016.7 - 0.0
31/01:00pm 24.6 19.4 -6.7 12 12.7 NNW 13 19 7 10 1017.3 - 0.0
31/12:30pm 24.2 19.4 -5.9 13 12.3 ENE 11 17 6 9 1017.8 - 0.0
31/12:00pm 23.9 19.8 -6.2 13 12.2 ESE 7 11 4 6 1018.4 1018.3 0.0
31/11:30am 23.4 19.5 -6.5 13 12.0 ESE 6 11 3 6 1018.9 - 0.0
31/11:00am 21.7 17.3 -6.0 15 11.0 ESE 9 11 5 6 1019.2 - 0.0
31/10:30am 19.6 14.8 -6.1 17 10.0 ESE 11 13 6 7 1019.3 - 0.0
31/10:00am 17.6 13.7 -6.3 19 9.1 SE 6 7 3 4 1019.5 - 0.0
31/09:30am 15.6 12.4 -7.2 20 8.3 SE 2 6 1 3 1019.4 - 0.0
31/09:00am 12.4 8.4 -7.6 24 6.9 SE 6 7 3 4 1019.3 1019.4 0.0
31/08:30am 9.3 4.9 -9.7 25 6.0 SE 7 9 4 5 1019.3 - 0.0
31/08:00am 8.4 5.8 -5.1 38 4.7 CALM 0 0 0 0 1019.1 - 0.0
31/07:30am 7.2 4.5 -5.8 39 4.4 CALM 0 0 0 0 1018.8 - 0.0
31/07:00am 7.2 3.0 -9.6 29 5.2 SE 6 6 3 3 1018.6 - 0.0
31/06:30am 8.6 5.7 -7.5 31 5.3 CALM 0 0 0 0 1018.4 - 0.0
31/06:00am 8.1 5.2 -8.0 31 5.2 CALM 0 0 0 0 1018.2 1018.2 0.0
31/05:30am 8.1 4.0 -9.3 28 5.5 SE 6 6 3 3 1018.2 - 0.0
31/05:00am 7.9 3.6 -9.0 29 5.3 SE 7 9 4 5 1018.1 - 0.0
31/04:30am 8.0 5.1 -8.5 30 5.3 CALM 0 0 0 0 1018.2 - 0.0
31/04:00am 8.7 5.8 -7.9 30 5.4 CALM 0 0 0 0 1018.5 - 0.0
31/03:30am 9.5 6.5 -9.5 25 6.1 CALM 0 0 0 0 1018.7 - 0.0
31/03:00am 9.1 4.8 -8.4 28 5.7 SE 7 11 4 6 1018.8 1018.8 0.0
31/02:30am 9.5 5.1 -10.0 24 6.2 SE 7 9 4 5 1018.9 - 0.0
31/02:00am 10.2 6.5 -8.4 26 6.2 SE 4 6 2 3 1019.2 - 0.0
31/01:30am 10.0 5.9 -8.6 26 6.1 SE 6 7 3 4 1019.3 - 0.0
31/01:00am 10.6 7.7 -8.1 26 6.3 CALM 0 6 0 3 1019.4 - 0.0
31/12:30am 13.4 10.6 -6.7 24 7.2 CALM 0 0 0 0 1019.4 - 0.0
31/12:00am 13.8 9.9 -6.4 24 7.3 SE 6 9 3 5 1019.5 1019.5 0.0
 
Date/Time
EST
Temp
°C
App
Temp
°C
Dew
Point
Rel
Hum
%
Delta-T
°C
Wind Press
QNH
hPa
Press
MSL
hPa
Rain
since 9 am
mm
Dir
 
Spd
km/h
Gust
km/h
Spd
kts
Gust
kts
30/11:30pm 14.8 10.3 -7.3 21 8.0 SE 9 9 5 5 1019.5 - 0.0
30/11:00pm 14.0 10.0 -5.2 26 7.2 ESE 7 9 4 5 1019.9 - 0.0
30/10:30pm 14.6 11.6 -5.2 25 7.4 ESE 2 6 1 3 1020.1 - 0.0
30/10:00pm 14.3 10.5 -5.4 25 7.3 ESE 6 11 3 6 1020.1 - 0.0
30/09:30pm 16.5 12.4 -6.5 20 8.6 SSE 7 13 4 7 1019.9 - 0.0
30/09:00pm 18.3 14.3 -5.7 19 9.3 S 7 9 4 5 1019.9 1019.9 0.0
30/08:30pm 16.9 12.4 -6.8 19 8.8 S 9 11 5 6 1019.8 - 0.0
30/08:00pm 18.9 14.5 -5.9 18 9.6 S 9 11 5 6 1019.7 - 0.0
30/07:30pm 19.6 15.2 -6.1 17 10.0 S 9 11 5 6 1019.4 - 0.0
30/07:00pm 20.0 15.4 -7.4 15 10.4 S 9 11 5 6 1019.1 - 0.0
30/06:30pm 21.9 17.4 -6.8 14 11.3 S 9 9 5 5 1019.0 - 0.0
30/06:00pm 23.6 19.2 -5.4 14 11.9 SSE 9 13 5 7 1019.0 1019.0 0.0
30/05:30pm 24.5 19.7 -5.7 13 12.5 SE 11 15 6 8 1019.0 - 0.0
30/05:00pm 25.1 20.4 -5.2 13 12.7 S 11 15 6 8 1018.9 - 0.0
30/04:30pm 25.1 21.1 -5.2 13 12.7 ESE 7 15 4 8 1019.0 - 0.0
30/04:00pm 25.1 20.0 -5.2 13 12.7 S 13 20 7 11 1019.1 - 0.0
30/03:30pm 25.0 19.9 -5.3 13 12.6 SSE 13 20 7 11 1019.1 - 0.0
30/03:00pm 24.8 19.7 -5.5 13 12.5 S 13 22 7 12 1019.3 1019.3 0.0
30/02:30pm 24.7 19.2 -5.5 13 12.5 S 15 22 8 12 1019.8 - 0.0
30/02:00pm 24.6 20.7 -4.6 14 12.3 SE 7 24 4 13 1020.2 - 0.0
30/01:30pm 24.8 21.1 -4.5 14 12.4 SSE 6 15 3 8 1020.9 - 0.0
30/01:00pm 24.3 18.9 -4.9 14 12.2 S 15 24 8 13 1021.6 - 0.0
30/12:30pm 24.4 18.6 -4.8 14 12.2 SE 17 24 9 13 1022.1 - 0.0
30/12:00pm 23.6 18.5 -5.4 14 11.9 ESE 13 19 7 10 1022.6 1022.5 0.0
30/11:30am 22.6 17.5 -5.3 15 11.4 SE 13 19 7 10 1023.1 - 0.0
30/11:00am 21.4 16.4 -3.9 18 10.5 SE 13 19 7 10 1023.4 - 0.0
30/10:30am 19.5 14.9 -4.0 20 9.5 SSE 11 17 6 9 1023.7 - 0.0

Other Formats:

Comma delimited format used in spreadsheet applications
http://www.bom.gov.au/fwo/IDQ60801/IDQ60801.95482.axf

JavaScript Object Notation format (JSON) in row-major order
http://www.bom.gov.au/fwo/IDQ60801/IDQ60801.95482.json